Time;durP1;ratioP1;P1;durP2;ratioP2;P2;SDS_P1;SDS_P2;PMS_P1;PMS_P2;Temp;Humidity;BMP_temperature;BMP_pressure;BME280_temperature;BME280_humidity;BME280_pressure;Samples;Min_cycle;Max_cycle;Signal;HPM_P1;HPM_P2
2023/03/18 00:01:49;;;;;;;8.50;4.72;;;;;;;16.57;45.68;100720.03;4946584;28;124387;-64
2023/03/18 00:04:16;;;;;;;7.90;4.75;;;;;;;16.53;45.75;100716.72;4949222;28;124103;-63
2023/03/18 00:06:44;;;;;;;9.35;4.47;;;;;;;16.50;45.91;100712.47;4948052;28;110019;-65
2023/03/18 00:09:12;;;;;;;11.75;5.35;;;;;;;16.49;45.95;100710.72;4953490;28;109536;-65
2023/03/18 00:11:40;;;;;;;12.02;4.93;;;;;;;16.46;45.83;100705.63;4951437;28;124455;-65
2023/03/18 00:14:08;;;;;;;10.02;4.90;;;;;;;16.46;46.11;100705.63;4954998;28;123953;-65
2023/03/18 00:16:36;;;;;;;8.20;4.50;;;;;;;16.43;46.22;100695.13;4949767;28;109115;-66
2023/03/18 00:19:03;;;;;;;7.53;4.90;;;;;;;16.42;46.23;100698.75;4950930;28;109220;-64
2023/03/18 00:21:31;;;;;;;10.80;4.65;;;;;;;16.41;46.31;100691.72;4947218;28;124084;-64
2023/03/18 00:23:59;;;;;;;10.43;5.13;;;;;;;16.39;46.32;100699.00;4946776;28;123970;-64
2023/03/18 00:26:27;;;;;;;10.52;5.55;;;;;;;16.39;46.65;100696.34;4949082;28;108982;-64
2023/03/18 00:28:56;;;;;;;8.38;4.97;;;;;;;16.37;46.51;100706.28;4944819;28;108924;-64
2023/03/18 00:31:24;;;;;;;9.60;5.38;;;;;;;16.36;46.64;100712.56;4948397;28;123641;-64
2023/03/18 00:33:52;;;;;;;9.88;4.97;;;;;;;16.34;46.68;100706.50;4948559;28;124025;-64
2023/03/18 00:36:24;;;;;;;9.43;4.72;;;;;;;16.34;46.84;100712.69;4944959;28;108298;-64
2023/03/18 00:38:56;;;;;;;11.30;5.05;;;;;;;16.33;46.77;100710.13;4944427;28;108942;-64
2023/03/18 00:41:27;;;;;;;9.57;4.93;;;;;;;16.30;46.95;100713.03;4947608;28;123126;-65
2023/03/18 00:43:55;;;;;;;10.73;5.63;;;;;;;16.30;46.68;100726.38;4952460;28;122957;-64
2023/03/18 00:46:26;;;;;;;8.23;4.93;;;;;;;16.27;46.94;100727.44;4943237;28;109251;-64
2023/03/18 00:48:55;;;;;;;12.07;5.30;;;;;;;16.27;47.05;100731.94;4940378;28;108174;-64
2023/03/18 00:51:25;;;;;;;13.75;5.50;;;;;;;16.25;47.18;100728.53;4946452;28;124141;-64
2023/03/18 00:53:55;;;;;;;9.25;5.50;;;;;;;16.24;47.27;100726.84;4957019;28;122839;-64
2023/03/18 00:56:26;;;;;;;13.32;5.70;;;;;;;16.24;47.30;100729.50;4954330;28;109504;-64
2023/03/18 00:58:53;;;;;;;11.80;5.20;;;;;;;16.22;47.42;100723.38;4957783;28;109856;-64
2023/03/18 01:01:22;;;;;;;10.82;5.40;;;;;;;16.22;47.30;100734.06;4947305;28;124958;-63
2023/03/18 01:03:50;;;;;;;12.40;5.75;;;;;;;16.23;47.43;100725.09;4949420;28;123425;-64
2023/03/18 01:06:25;;;;;;;12.98;6.13;;;;;;;16.21;47.60;100733.22;4951143;28;109290;-64
2023/03/18 01:08:52;;;;;;;11.85;5.72;;;;;;;16.21;47.40;100743.06;4948645;28;107935;-64
2023/03/18 01:11:20;;;;;;;10.27;5.88;;;;;;;16.20;47.62;100736.00;4946909;28;122997;-64
2023/03/18 01:13:48;;;;;;;10.27;5.57;;;;;;;16.19;47.80;100729.81;4952219;28;124732;-67
2023/03/18 01:16:16;;;;;;;12.68;6.00;;;;;;;16.18;47.82;100732.59;4950397;28;109222;-64
2023/03/18 01:18:44;;;;;;;10.60;5.93;;;;;;;16.17;47.73;100741.59;4935801;28;108317;-64
2023/03/18 01:21:11;;;;;;;13.45;6.03;;;;;;;16.15;47.79;100745.19;4945703;28;124087;-64
2023/03/18 01:23:47;;;;;;;11.63;6.10;;;;;;;16.13;48.04;100736.44;4940930;28;126636;-64
2023/03/18 01:26:15;;;;;;;12.40;6.30;;;;;;;16.13;48.11;100746.28;4954821;28;108403;-64
2023/03/18 01:28:44;;;;;;;11.75;6.22;;;;;;;16.11;48.16;100749.06;4949757;28;108347;-64
2023/03/18 01:31:12;;;;;;;11.70;5.90;;;;;;;16.09;48.20;100745.63;4949455;28;124986;-64
2023/03/18 01:33:41;;;;;;;11.65;6.30;;;;;;;16.08;48.38;100733.22;4943683;28;123074;-64
2023/03/18 01:36:09;;;;;;;11.52;6.32;;;;;;;16.06;48.54;100735.16;4952208;28;107277;-64
2023/03/18 01:38:37;;;;;;;12.18;6.57;;;;;;;16.04;48.70;100731.75;4945130;28;109295;-64
2023/03/18 01:41:11;;;;;;;10.63;6.57;;;;;;;16.03;48.93;100735.38;4949986;28;127162;-64
2023/03/18 01:43:41;;;;;;;13.40;6.60;;;;;;;16.01;49.17;100729.31;4952903;28;122746;-64
2023/03/18 01:46:31;;;;;;;13.88;7.32;;;;;;;16.00;49.08;100738.25;4944633;28;109373;-64
2023/03/18 01:49:03;;;;;;;15.93;7.03;;;;;;;15.97;49.50;100735.78;4951033;28;109267;-64
2023/03/18 01:51:31;;;;;;;14.20;8.23;;;;;;;15.94;49.45;100746.72;4944835;28;124783;-64
2023/03/18 01:54:02;;;;;;;12.40;7.40;;;;;;;15.90;49.82;100731.88;4947442;28;123752;-63
2023/03/18 01:56:30;;;;;;;15.40;7.72;;;;;;;15.89;49.88;100738.16;4961303;28;107918;-63
2023/03/18 01:58:59;;;;;;;14.75;7.78;;;;;;;15.87;50.05;100729.41;4954906;28;108489;-63
2023/03/18 02:01:33;;;;;;;16.67;8.10;;;;;;;15.86;50.46;100722.31;4947978;28;123717;-63
2023/03/18 02:04:06;;;;;;;15.27;8.50;;;;;;;15.86;50.38;100722.31;4942942;28;123590;-64
2023/03/18 02:06:33;;;;;;;13.10;7.95;;;;;;;15.86;50.36;100727.66;4948481;28;109008;-63
2023/03/18 02:09:01;;;;;;;14.23;8.15;;;;;;;15.85;50.45;100725.97;4949272;28;108483;-64
2023/03/18 02:11:34;;;;;;;13.43;8.15;;;;;;;15.82;50.80;100721.69;4934049;28;123871;-64
2023/03/18 02:14:04;;;;;;;16.35;8.25;;;;;;;15.82;50.73;100736.84;4947536;28;124407;-63
2023/03/18 02:16:46;;;;;;;14.48;8.85;;;;;;;15.79;50.83;100737.09;4960743;28;108234;-64
2023/03/18 02:19:29;;;;;;;16.58;8.73;;;;;;;15.77;50.98;100735.38;4944338;28;108263;-64
2023/03/18 02:22:28;;;;;;;16.23;8.70;;;;;;;15.75;51.00;100742.63;4959232;28;123921;-63
2023/03/18 02:25:17;;;;;;;16.33;8.43;;;;;;;15.71;51.00;100741.09;4944848;28;124202;-63
2023/03/18 02:27:49;;;;;;;16.65;9.02;;;;;;;15.69;51.21;100732.34;4946709;28;108533;-63
2023/03/18 02:30:21;;;;;;;16.52;8.88;;;;;;;15.69;51.49;100735.00;4938547;28;107966;-63
2023/03/18 02:32:52;;;;;;;;;;;;;;;15.64;50.59;100734.47;4948922;28;127066;-63
2023/03/18 02:35:20;;;;;;;15.18;8.52;;;;;;;15.63;51.05;100743.41;4950707;28;123214;-63
2023/03/18 02:37:49;;;;;;;14.75;8.93;;;;;;;15.60;51.24;100749.00;4953548;28;109269;-63
2023/03/18 02:40:23;;;;;;;14.30;8.80;;;;;;;15.60;51.78;100740.97;4947140;28;109225;-64
2023/03/18 02:42:52;;;;;;;16.47;9.20;;;;;;;15.60;51.72;100743.66;4942750;28;123290;-63
2023/03/18 02:45:51;;;;;;;19.08;9.00;;;;;;;15.60;51.88;100749.00;4950531;28;122948;-63
2023/03/18 02:48:22;;;;;;;16.42;8.98;;;;;;;15.60;51.91;100748.13;4951199;28;109309;-63
2023/03/18 02:50:49;;;;;;;16.77;9.48;;;;;;;15.58;52.04;100756.25;4947182;28;108095;-63
2023/03/18 02:53:17;;;;;;;15.07;9.30;;;;;;;15.57;52.08;100757.19;4950269;28;123264;-64
2023/03/18 02:55:44;;;;;;;15.45;9.13;;;;;;;15.57;52.33;100765.19;4943402;28;123076;-63
2023/03/18 02:58:11;;;;;;;18.25;9.25;;;;;;;15.55;52.43;100772.47;4944377;28;108756;-63
2023/03/18 03:00:40;;;;;;;16.40;9.23;;;;;;;15.54;52.60;100770.75;4948165;28;108186;-63
2023/03/18 03:03:07;;;;;;;17.20;10.07;;;;;;;15.52;52.63;100772.66;4949196;28;124547;-63
2023/03/18 03:05:35;;;;;;;17.20;9.90;;;;;;;15.50;52.74;100779.91;4940092;28;123804;-63
2023/03/18 03:08:02;;;;;;;19.77;10.55;;;;;;;15.48;53.09;100776.50;4941792;28;109967;-63
2023/03/18 03:10:33;;;;;;;19.33;10.38;;;;;;;15.46;53.22;100775.75;4944341;28;109492;-63
2023/03/18 03:13:01;;;;;;;17.85;10.15;;;;;;;15.46;53.43;100770.41;4947879;28;123382;-63
2023/03/18 03:15:29;;;;;;;21.85;9.82;;;;;;;15.43;53.52;100768.81;4946126;28;122961;-63
2023/03/18 03:17:58;;;;;;;17.48;10.15;;;;;;;15.43;53.49;100778.63;4943799;28;109576;-63
2023/03/18 03:20:25;;;;;;;18.52;10.13;;;;;;;15.43;53.55;100774.16;4945749;28;109448;-63
2023/03/18 03:22:53;;;;;;;21.15;11.10;;;;;;;15.43;53.81;100789.31;4947147;28;123375;-63
2023/03/18 03:25:21;;;;;;;20.95;10.52;;;;;;;15.42;53.77;100793.78;4949337;28;122872;-64
2023/03/18 03:27:48;;;;;;;18.33;10.63;;;;;;;15.41;53.97;100791.19;4945016;28;109969;-63
2023/03/18 03:30:17;;;;;;;20.88;10.98;;;;;;;15.40;54.00;100792.16;4946290;28;108850;-64
2023/03/18 03:32:45;;;;;;;17.75;10.70;;;;;;;15.37;54.08;100791.41;4949422;28;123301;-64
2023/03/18 03:35:16;;;;;;;19.90;10.68;;;;;;;15.35;54.35;100793.34;4942767;28;123842;-63
2023/03/18 03:37:44;;;;;;;23.02;11.50;;;;;;;15.31;54.35;100797.16;4943763;28;108430;-63
2023/03/18 03:40:15;;;;;;;20.02;11.23;;;;;;;15.28;54.60;100797.34;4945546;28;110311;-64
2023/03/18 03:42:43;;;;;;;15.98;10.93;;;;;;;15.27;54.71;100800.97;4945056;28;124273;-64
2023/03/18 03:45:13;;;;;;;17.60;11.43;;;;;;;15.26;54.80;100803.75;4948325;28;124579;-64
2023/03/18 03:47:42;;;;;;;17.92;11.00;;;;;;;15.24;54.78;100805.66;4950479;28;108475;-64
2023/03/18 03:50:10;;;;;;;24.88;11.68;;;;;;;15.23;54.77;100804.81;4949997;28;109178;-64
2023/03/18 03:52:38;;;;;;;18.50;11.63;;;;;;;15.21;54.90;100806.72;4947982;28;123251;-64
2023/03/18 03:55:07;;;;;;;21.60;11.70;;;;;;;15.18;54.90;100814.91;4946783;28;123019;-64
2023/03/18 03:57:36;;;;;;;19.70;11.75;;;;;;;15.19;55.10;100808.63;4949361;28;108465;-64
2023/03/18 04:00:06;;;;;;;19.17;11.98;;;;;;;15.15;55.38;100809.78;4945932;28;110268;-64
2023/03/18 04:02:43;;;;;;;20.40;11.05;;;;;;;15.12;55.33;100809.97;4946384;28;124566;-64
2023/03/18 04:05:15;;;;;;;20.23;11.35;;;;;;;15.11;55.42;100808.28;4955032;28;122999;-64
2023/03/18 04:07:44;;;;;;;20.45;12.65;;;;;;;15.09;55.43;100815.53;4946671;28;108086;-63
2023/03/18 04:10:14;;;;;;;20.25;12.45;;;;;;;15.08;55.61;100811.97;4956058;28;109117;-64
2023/03/18 04:12:44;;;;;;;20.77;12.77;;;;;;;15.08;55.71;100813.81;4945911;28;124145;-64
2023/03/18 04:15:14;;;;;;;20.98;12.25;;;;;;;15.07;55.89;100817.41;4960482;28;122910;-64
2023/03/18 04:17:43;;;;;;;22.35;12.38;;;;;;;15.07;55.85;100814.75;4947956;28;109351;-64
2023/03/18 04:20:16;;;;;;;18.15;12.50;;;;;;;15.06;55.82;100813.03;4952093;28;109112;-64
2023/03/18 04:22:44;;;;;;;22.10;12.38;;;;;;;15.03;55.90;100824.78;4951420;28;123259;-63
2023/03/18 04:25:16;;;;;;;21.73;12.02;;;;;;;15.03;56.06;100823.91;4954486;28;123302;-64
2023/03/18 04:27:43;;;;;;;22.35;12.65;;;;;;;15.01;56.25;100825.81;4947803;28;109603;-64
2023/03/18 04:30:13;;;;;;;22.67;12.80;;;;;;;15.00;56.35;100830.31;4957211;28;109577;-63
2023/03/18 04:33:00;;;;;;;23.25;12.63;;;;;;;14.96;56.25;100834.97;4948029;28;123433;-64
2023/03/18 04:35:30;;;;;;;22.55;13.13;;;;;;;14.94;56.39;100834.22;4951636;28;122471;-64
2023/03/18 04:37:58;;;;;;;20.30;12.05;;;;;;;14.94;56.59;100820.88;4954139;28;96854;-63
2023/03/18 04:40:27;;;;;;;20.90;12.55;;;;;;;14.95;56.52;100817.25;4945953;28;109778;-63
2023/03/18 04:42:54;;;;;;;21.08;12.95;;;;;;;14.96;56.61;100816.31;4948282;28;123526;-63
2023/03/18 04:45:24;;;;;;;21.55;13.00;;;;;;;14.97;56.67;100820.69;4942702;28;122906;-63
2023/03/18 04:47:55;;;;;;;21.02;12.55;;;;;;;14.98;56.65;100827.72;4946898;28;108320;-64
2023/03/18 04:50:24;;;;;;;21.25;13.18;;;;;;;14.99;56.77;100826.78;4946375;28;109012;-64
2023/03/18 04:52:52;;;;;;;20.58;13.23;;;;;;;15.01;56.87;100825.81;4947923;28;123804;-64
2023/03/18 04:55:24;;;;;;;21.08;13.23;;;;;;;15.00;56.72;100822.28;4943260;28;123031;-64
2023/03/18 04:57:51;;;;;;;21.25;13.70;;;;;;;14.97;56.84;100826.03;4952011;28;108450;-68
2023/03/18 05:00:21;;;;;;;27.88;13.40;;;;;;;14.98;57.02;100824.22;4948906;28;109101;-63
2023/03/18 05:02:54;;;;;;;21.52;13.15;;;;;;;14.97;57.00;100834.03;4945698;28;123895;-63
2023/03/18 05:05:24;;;;;;;24.58;13.38;;;;;;;14.97;56.93;100828.69;4943615;28;123067;-64
2023/03/18 05:07:52;;;;;;;21.10;12.85;;;;;;;14.97;56.98;100842.03;4947237;28;109307;-64
2023/03/18 05:10:20;;;;;;;22.30;13.73;;;;;;;14.97;57.13;100835.81;4946329;28;109181;-63
2023/03/18 05:12:49;;;;;;;26.38;13.90;;;;;;;14.95;57.15;100841.25;4946912;28;123186;-63
2023/03/18 05:15:24;;;;;;;22.45;13.25;;;;;;;14.95;57.23;100837.72;4945676;28;123779;-64
2023/03/18 05:17:54;;;;;;;25.45;13.15;;;;;;;14.94;57.29;100834.22;4951473;28;108708;-64
2023/03/18 05:20:22;;;;;;;21.13;13.13;;;;;;;14.94;57.19;100836.88;4955421;28;109313;-64
2023/03/18 05:22:51;;;;;;;22.92;14.10;;;;;;;14.95;57.32;100843.91;4928503;28;123345;-64
2023/03/18 05:25:30;;;;;;;25.52;14.27;;;;;;;14.94;57.32;100841.38;4948027;28;122921;-64
2023/03/18 05:27:58;;;;;;;22.25;13.57;;;;;;;14.93;57.38;100848.47;4949979;28;108389;-64
2023/03/18 05:30:35;;;;;;;22.40;14.00;;;;;;;14.92;57.31;100852.13;4953482;28;109249;-64
2023/03/18 05:33:04;;;;;;;20.75;13.15;;;;;;;14.91;57.43;100853.06;4949897;28;124235;-64
2023/03/18 05:35:43;;;;;;;23.08;14.05;;;;;;;14.91;57.48;100858.41;4962305;28;123150;-64
2023/03/18 05:38:10;;;;;;;19.85;13.27;;;;;;;14.88;57.62;100847.94;4949522;28;108162;-65
2023/03/18 05:40:38;;;;;;;22.52;13.40;;;;;;;14.88;57.74;100850.59;4950069;28;109346;-65
2023/03/18 05:43:12;;;;;;;21.10;13.03;;;;;;;14.89;57.62;100854.97;4953643;28;123965;-64
2023/03/18 05:45:47;;;;;;;20.33;12.55;;;;;;;14.89;57.50;100860.31;4950723;28;127461;-64
2023/03/18 05:48:16;;;;;;;19.52;12.93;;;;;;;14.89;57.51;100854.97;4957216;28;108215;-64
2023/03/18 05:50:51;;;;;;;21.23;13.18;;;;;;;14.89;57.58;100854.13;4953047;28;109235;-63
2023/03/18 05:53:23;;;;;;;22.08;13.07;;;;;;;14.89;57.65;100860.31;4948136;28;124157;-63
2023/03/18 05:55:58;;;;;;;21.95;13.00;;;;;;;14.89;57.58;100854.97;4950281;28;123050;-63
2023/03/18 05:58:29;;;;;;;22.45;13.85;;;;;;;14.88;57.77;100847.94;4952458;28;109562;-63
2023/03/18 06:01:12;;;;;;;21.70;12.95;;;;;;;14.88;57.78;100853.28;4950696;28;109190;-63
2023/03/18 06:03:40;;;;;;;19.02;13.43;;;;;;;14.89;57.81;100860.31;4954611;28;123445;-64
2023/03/18 06:06:07;;;;;;;22.65;12.85;;;;;;;14.88;57.74;100869.28;4956049;28;122600;-64
2023/03/18 06:08:37;;;;;;;22.10;13.25;;;;;;;14.90;57.99;100872.69;4953157;28;108624;-64
2023/03/18 06:11:05;;;;;;;23.50;13.10;;;;;;;14.90;57.93;100872.69;4952445;28;110031;-64
2023/03/18 06:13:32;;;;;;;25.80;13.38;;;;;;;14.89;58.15;100876.31;4946468;28;125963;-64
2023/03/18 06:16:00;;;;;;;23.50;12.15;;;;;;;14.89;57.95;100881.63;4928905;28;122926;-64
2023/03/18 06:18:29;;;;;;;20.42;11.90;;;;;;;14.87;58.06;100878.22;4952327;28;108449;-64
2023/03/18 06:20:56;;;;;;;21.50;12.77;;;;;;;14.87;58.17;100888.03;4948697;28;109802;-64
2023/03/18 06:23:23;;;;;;;21.33;13.10;;;;;;;14.86;58.23;100881.84;4950597;28;123929;-63
2023/03/18 06:25:52;;;;;;;19.00;12.35;;;;;;;14.86;58.21;100887.19;4948848;28;123424;-63
2023/03/18 06:28:25;;;;;;;21.67;12.07;;;;;;;14.86;58.35;100881.84;4933626;28;108774;-63
2023/03/18 06:30:56;;;;;;;19.70;10.90;;;;;;;14.88;58.42;100885.28;4950973;28;109089;-63
2023/03/18 06:33:25;;;;;;;22.70;11.82;;;;;;;14.90;58.38;100883.38;4950710;28;123151;-64
2023/03/18 06:35:53;;;;;;;18.75;11.00;;;;;;;14.92;58.40;100880.63;4946367;28;124614;-64
2023/03/18 06:38:21;;;;;;;19.63;11.82;;;;;;;14.92;58.21;100886.78;4945432;28;108427;-64
2023/03/18 06:40:50;;;;;;;20.10;10.98;;;;;;;14.92;58.33;100886.78;4947698;28;109302;-64
2023/03/18 06:43:17;;;;;;;17.63;10.85;;;;;;;14.94;58.23;100884.88;4953321;28;124696;-64
2023/03/18 06:45:45;;;;;;;21.02;11.20;;;;;;;14.95;58.16;100891.91;4948976;28;123584;-64
2023/03/18 06:48:13;;;;;;;16.13;10.32;;;;;;;14.96;58.22;100887.47;4951157;28;109341;-64
2023/03/18 06:50:43;;;;;;;16.35;10.70;;;;;;;14.96;58.18;100893.66;4948245;28;109048;-64
2023/03/18 06:53:24;;;;;;;17.63;10.95;;;;;;;15.02;58.39;100894.22;4948822;28;124038;-65
2023/03/18 06:55:52;;;;;;;16.25;9.35;;;;;;;15.08;58.32;100896.50;4944691;28;123198;-63
2023/03/18 06:58:23;;;;;;;16.20;9.38;;;;;;;15.16;58.34;100894.19;4946139;28;108313;-64
2023/03/18 07:00:59;;;;;;;17.63;9.43;;;;;;;15.25;58.12;100903.44;4952630;28;110935;-64
2023/03/18 07:03:32;;;;;;;16.33;9.00;;;;;;;15.34;58.21;100898.34;4954807;28;123501;-64
2023/03/18 07:06:00;;;;;;;18.52;9.82;;;;;;;15.45;58.05;100896.81;4949199;28;123500;-64
2023/03/18 07:08:28;;;;;;;16.85;8.55;;;;;;;15.54;58.21;100904.25;4943222;28;108475;-64
2023/03/18 07:10:55;;;;;;;14.07;8.63;;;;;;;15.63;58.11;100908.94;4944744;28;108220;-64
2023/03/18 07:13:25;;;;;;;14.93;8.93;;;;;;;15.74;57.74;100914.47;4953058;28;124098;-64
2023/03/18 07:15:55;;;;;;;15.70;8.77;;;;;;;15.83;57.87;100921.03;4943895;28;124016;-63
2023/03/18 07:18:23;;;;;;;16.25;8.63;;;;;;;15.91;57.70;100924.03;4946089;28;108530;-64
2023/03/18 07:20:50;;;;;;;14.90;9.10;;;;;;;16.01;57.87;100929.66;4937047;28;109559;-64
2023/03/18 07:23:17;;;;;;;12.88;8.55;;;;;;;16.08;57.70;100925.59;4947710;28;123187;-63
2023/03/18 07:25:45;;;;;;;15.73;9.57;;;;;;;16.13;57.31;100928.81;4951605;28;122751;-64
2023/03/18 07:28:12;;;;;;;14.32;9.15;;;;;;;16.15;57.44;100932.25;4942863;28;109492;-64
2023/03/18 07:30:39;;;;;;;15.65;9.05;;;;;;;16.20;57.51;100939.09;4934990;28;109053;-67
2023/03/18 07:33:07;;;;;;;15.77;9.18;;;;;;;16.25;57.12;100942.31;4953021;28;123490;-63
2023/03/18 07:35:39;;;;;;;16.85;9.57;;;;;;;16.26;56.98;100939.56;4949363;28;123880;-64
2023/03/18 07:38:08;;;;;;;18.02;9.40;;;;;;;16.26;56.85;100944.06;4944155;28;110526;-64
2023/03/18 07:40:36;;;;;;;15.73;9.23;;;;;;;16.25;56.44;100942.31;4938789;28;110931;-64
2023/03/18 07:43:04;;;;;;;15.30;9.63;;;;;;;16.27;56.92;100945.75;4948520;28;124701;-64
2023/03/18 07:45:33;;;;;;;15.10;9.52;;;;;;;16.29;56.71;100938.47;4944461;28;123830;-64
2023/03/18 07:48:00;;;;;;;16.13;10.30;;;;;;;16.28;56.83;100947.47;4950350;28;109444;-64
2023/03/18 07:50:28;;;;;;;16.42;9.88;;;;;;;16.26;56.94;100950.25;4936641;28;110313;-64
2023/03/18 07:52:55;;;;;;;16.70;9.90;;;;;;;16.28;56.86;100950.16;4941721;28;124134;-64
2023/03/18 07:55:23;;;;;;;14.73;9.75;;;;;;;16.28;56.65;100958.16;4945346;28;124314;-64
2023/03/18 07:57:50;;;;;;;15.88;10.15;;;;;;;16.27;56.51;100961.78;4944751;28;109614;-64
2023/03/18 08:00:18;;;;;;;13.77;9.07;;;;;;;16.27;56.64;100959.09;4958410;28;110434;-64
2023/03/18 08:02:45;;;;;;;15.00;9.70;;;;;;;16.29;56.67;100970.56;4952306;28;124088;-64
2023/03/18 08:05:13;;;;;;;15.10;9.90;;;;;;;16.31;56.71;100979.31;4932137;28;124274;-64
2023/03/18 08:07:41;;;;;;;15.13;9.95;;;;;;;16.34;56.84;100968.44;4968157;28;108333;-64
2023/03/18 08:10:09;;;;;;;14.85;9.88;;;;;;;16.41;56.93;100975.09;4958202;28;109349;-63
2023/03/18 08:12:36;;;;;;;15.82;9.55;;;;;;;16.47;56.77;100969.31;4943878;28;124907;-63
2023/03/18 08:15:20;;;;;;;14.55;9.80;;;;;;;16.54;56.83;100973.28;4949273;28;123739;-63
2023/03/18 08:17:49;;;;;;;14.93;10.05;;;;;;;16.60;56.81;100979.19;4966065;28;108898;-63
2023/03/18 08:20:17;;;;;;;15.55;9.43;;;;;;;16.67;56.63;100975.09;4948767;28;110029;-63
2023/03/18 08:22:44;;;;;;;14.18;9.75;;;;;;;16.74;56.71;100981.75;4955269;28;124134;-63
2023/03/18 08:25:12;;;;;;;14.52;9.65;;;;;;;16.82;56.61;100974.13;4945264;28;122734;-63
2023/03/18 08:27:39;;;;;;;14.07;9.98;;;;;;;16.89;56.43;100970.03;4951305;28;110154;-63
2023/03/18 08:30:08;;;;;;;14.23;9.95;;;;;;;16.91;56.43;100968.13;4950543;28;110276;-63
2023/03/18 08:32:36;;;;;;;15.55;9.57;;;;;;;16.98;56.26;100965.00;4951822;28;124704;-63
2023/03/18 08:35:04;;;;;;;16.10;10.00;;;;;;;17.05;56.14;100963.63;4939183;28;124354;-63
2023/03/18 08:37:31;;;;;;;16.23;9.30;;;;;;;17.13;56.13;100971.94;4942626;28;109213;-63
2023/03/18 08:39:59;;;;;;;13.68;9.27;;;;;;;17.22;55.86;100971.31;4934365;28;109644;-63
2023/03/18 08:42:26;;;;;;;15.77;9.23;;;;;;;17.26;55.74;100962.09;4935080;28;124679;-64
2023/03/18 08:44:54;;;;;;;13.30;9.48;;;;;;;17.32;55.69;100972.34;4934042;28;123380;-64
2023/03/18 08:47:23;;;;;;;13.50;8.82;;;;;;;17.41;55.41;100965.50;4944885;28;109814;-63
2023/03/18 08:49:53;;;;;;;13.80;8.77;;;;;;;17.47;55.54;100965.03;4944914;28;108974;-63
2023/03/18 08:52:21;;;;;;;12.13;8.20;;;;;;;17.54;55.59;100973.50;4936136;28;123197;-64
2023/03/18 08:54:48;;;;;;;14.13;8.18;;;;;;;17.63;55.26;100980.00;4944797;28;123880;-64
2023/03/18 08:57:15;;;;;;;13.73;8.13;;;;;;;17.71;55.13;100983.84;4951247;28;109248;-64
2023/03/18 08:59:43;;;;;;;11.13;7.65;;;;;;;17.80;55.15;100981.44;4936058;28;108969;-64
2023/03/18 09:02:17;;;;;;;11.07;6.97;;;;;;;17.88;54.99;100969.25;4932038;28;123965;-64
2023/03/18 09:04:44;;;;;;;11.87;7.10;;;;;;;17.93;54.61;100974.25;4936102;28;123662;-64
2023/03/18 09:07:12;;;;;;;11.05;6.40;;;;;;;17.95;54.56;100974.13;4951326;28;109279;-64
2023/03/18 09:09:39;;;;;;;9.73;6.65;;;;;;;17.98;54.34;100966.72;4952971;28;109137;-64
2023/03/18 09:12:11;;;;;;;11.30;6.70;;;;;;;18.01;53.94;100973.69;4954198;28;124919;-63
2023/03/18 09:14:42;;;;;;;9.85;6.10;;;;;;;18.02;53.90;100970.03;4954257;28;123873;-63
2023/03/18 09:17:10;;;;;;;8.75;5.97;;;;;;;17.98;53.50;100974.75;4953791;28;109919;-64
2023/03/18 09:19:37;;;;;;;7.75;5.05;;;;;;;17.96;53.61;100976.69;4955706;28;110349;-63
2023/03/18 09:22:05;;;;;;;8.30;5.68;;;;;;;17.96;53.38;100974.03;4955929;28;124320;-65
2023/03/18 09:24:34;;;;;;;8.77;5.90;;;;;;;17.96;53.57;100975.84;4952306;28;123874;-64
2023/03/18 09:27:01;;;;;;;9.25;5.55;;;;;;;18.00;53.52;100972.81;4951016;28;109044;-64
2023/03/18 09:29:29;;;;;;;9.07;5.93;;;;;;;18.03;53.67;100972.59;4936219;28;108300;-64
2023/03/18 09:31:56;;;;;;;10.85;6.40;;;;;;;18.08;53.50;100973.13;4934270;28;123874;-64
2023/03/18 09:34:23;;;;;;;8.63;6.25;;;;;;;18.13;53.43;100971.91;4934615;28;123939;-64
2023/03/18 09:36:51;;;;;;;10.13;6.22;;;;;;;18.22;53.45;100976.59;4951877;28;110098;-65
2023/03/18 09:39:19;;;;;;;12.43;5.50;;;;;;;18.33;53.50;100979.31;4956009;28;108047;-64
2023/03/18 09:42:05;;;;;;;8.90;5.97;;;;;;;18.45;53.22;100978.38;4936090;28;124063;-64
2023/03/18 09:44:35;;;;;;;10.02;6.10;;;;;;;18.54;53.24;100975.97;4949156;28;124621;-64
2023/03/18 09:47:35;;;;;;;9.38;6.45;;;;;;;18.63;53.01;100986.00;4937982;28;110538;-64
2023/03/18 09:50:26;;;;;;;9.65;6.45;;;;;;;18.68;52.65;100983.81;4953257;28;109718;-64
2023/03/18 09:53:15;;;;;;;8.73;5.80;;;;;;;18.73;52.57;100992.38;4947200;28;124679;-63
2023/03/18 09:55:55;;;;;;;8.00;5.68;;;;;;;18.80;52.74;100992.75;4942336;28;124105;-63
2023/03/18 09:58:27;;;;;;;10.02;5.70;;;;;;;18.86;52.46;100993.16;4942704;28;109423;-63
2023/03/18 10:01:01;;;;;;;8.63;5.40;;;;;;;18.95;52.23;100999.66;4944702;28;109322;-63
2023/03/18 10:03:42;;;;;;;7.37;5.07;;;;;;;19.02;51.91;100997.31;4946467;28;124282;-63
2023/03/18 10:06:16;;;;;;;9.48;5.57;;;;;;;19.09;52.06;100992.34;4954189;28;123789;-63
2023/03/18 10:08:54;;;;;;;8.82;5.22;;;;;;;19.18;51.88;101003.19;4935822;28;110426;-63
2023/03/18 10:11:35;;;;;;;7.57;5.75;;;;;;;19.24;51.55;101002.72;4948614;28;109963;-63
2023/03/18 10:14:33;;;;;;;7.57;4.88;;;;;;;19.32;51.59;101009.31;4948215;28;124813;-63
2023/03/18 10:17:09;;;;;;;10.25;4.68;;;;;;;19.38;51.42;101009.69;4941204;28;123973;-63
2023/03/18 10:20:06;;;;;;;9.68;4.97;;;;;;;19.46;51.50;101006.38;4947341;28;109048;-63
2023/03/18 10:23:13;;;;;;;7.05;4.97;;;;;;;19.56;51.20;100996.59;4951102;28;108879;-63
2023/03/18 10:25:51;;;;;;;9.38;5.72;;;;;;;19.63;50.86;100992.44;4949148;28;124765;-63
2023/03/18 10:28:56;;;;;;;7.97;5.20;;;;;;;19.68;50.70;100992.06;4948299;28;123980;-63
2023/03/18 10:31:39;;;;;;;8.63;4.77;;;;;;;19.70;50.75;100994.63;4952677;28;109623;-63
2023/03/18 10:34:14;;;;;;;7.30;4.88;;;;;;;19.77;50.53;100998.56;4944995;28;109440;-63
2023/03/18 10:37:00;;;;;;;9.48;4.82;;;;;;;19.85;50.45;101001.47;4952491;28;123950;-63
2023/03/18 10:39:28;;;;;;;;;;;;;;;19.93;50.87;100999.03;4943391;28;123797;-63
2023/03/18 10:41:59;;;;;;;9.57;5.30;;;;;;;20.02;50.70;100992.91;4948010;28;109723;-63
2023/03/18 10:44:35;;;;;;;8.52;4.95;;;;;;;20.11;50.49;100995.78;4946252;28;108169;-63
2023/03/18 10:47:14;;;;;;;8.73;4.47;;;;;;;20.20;49.81;100995.03;4946335;28;124082;-63
2023/03/18 10:49:46;;;;;;;5.70;4.30;;;;;;;20.23;49.48;100994.78;4944482;28;124114;-63
2023/03/18 10:52:38;;;;;;;8.32;4.25;;;;;;;20.26;49.49;100993.66;4953268;28;109907;-63
2023/03/18 10:55:14;;;;;;;6.75;3.85;;;;;;;20.33;49.31;101000.25;4956477;28;109319;-63
2023/03/18 10:57:41;;;;;;;7.38;3.88;;;;;;;20.40;49.27;100979.91;4952938;28;124004;-63
2023/03/18 11:00:26;;;;;;;4.93;3.42;;;;;;;20.48;49.21;100981.97;4939246;28;123773;-63
2023/03/18 11:02:55;;;;;;;6.20;3.30;;;;;;;20.56;48.92;100974.06;4938807;28;110546;-63
2023/03/18 11:05:26;;;;;;;6.07;3.30;;;;;;;20.63;48.58;100977.16;4942542;28;108984;-63
2023/03/18 11:07:57;;;;;;;5.63;3.20;;;;;;;20.66;48.49;100979.56;4942723;28;125202;-63
2023/03/18 11:10:33;;;;;;;4.40;2.55;;;;;;;20.71;48.18;100972.78;4944752;28;123770;-63
2023/03/18 11:13:01;;;;;;;4.25;2.80;;;;;;;20.77;47.84;100971.41;4957398;28;109461;-63
2023/03/18 11:15:37;;;;;;;6.78;4.78;;;;;;;20.82;47.77;100973.72;4952806;28;109210;-63
2023/03/18 11:18:04;;;;;;;8.13;5.55;;;;;;;20.86;47.88;100969.78;4952120;28;124981;-63
2023/03/18 11:20:44;;;;;;;7.60;4.40;;;;;;;20.91;48.11;100968.38;4962243;28;123170;-63
2023/03/18 11:23:47;;;;;;;4.93;3.13;;;;;;;21.02;47.76;100963.88;4956902;28;109558;-64
2023/03/18 11:26:26;;;;;;;5.82;3.10;;;;;;;21.11;47.64;100969.31;4943383;28;108880;-63
2023/03/18 11:29:03;;;;;;;5.53;2.95;;;;;;;21.17;47.35;100963.41;4933267;28;124123;-63